sensor_id;sensor_type;location;lat;lon;timestamp;P1;durP1;ratioP1;P2;durP2;ratioP2
21546;SDS011;41275;51.912;4.388;2022-09-03T00:02:20;5.03;;;1.33;;
21546;SDS011;41275;51.912;4.388;2022-09-03T00:14:03;3.60;;;1.60;;
21546;SDS011;41275;51.912;4.388;2022-09-03T00:19:30;4.43;;;1.57;;
21546;SDS011;41275;51.912;4.388;2022-09-03T00:24:55;3.38;;;1.63;;
21546;SDS011;41275;51.912;4.388;2022-09-03T00:30:20;6.15;;;1.65;;
21546;SDS011;41275;51.912;4.388;2022-09-03T00:36:01;2.90;;;1.40;;
21546;SDS011;41275;51.912;4.388;2022-09-03T00:41:32;3.85;;;1.70;;
21546;SDS011;41275;51.912;4.388;2022-09-03T01:04:24;3.65;;;1.42;;
21546;SDS011;41275;51.912;4.388;2022-09-03T01:21:43;5.32;;;1.27;;
21546;SDS011;41275;51.912;4.388;2022-09-03T01:33:25;4.03;;;1.47;;
21546;SDS011;41275;51.912;4.388;2022-09-03T01:38:56;3.58;;;1.50;;
21546;SDS011;41275;51.912;4.388;2022-09-03T01:44:25;4.53;;;1.30;;
21546;SDS011;41275;51.912;4.388;2022-09-03T01:55:55;2.13;;;1.30;;
21546;SDS011;41275;51.912;4.388;2022-09-03T02:01:43;3.20;;;1.50;;
21546;SDS011;41275;51.912;4.388;2022-09-03T02:07:09;4.20;;;1.53;;
21546;SDS011;41275;51.912;4.388;2022-09-03T02:12:31;2.95;;;1.30;;
21546;SDS011;41275;51.912;4.388;2022-09-03T02:17:56;2.80;;;1.33;;
21546;SDS011;41275;51.912;4.388;2022-09-03T02:23:22;5.03;;;1.58;;
21546;SDS011;41275;51.912;4.388;2022-09-03T02:28:44;5.25;;;1.35;;
21546;SDS011;41275;51.912;4.388;2022-09-03T02:34:06;5.50;;;1.80;;
21546;SDS011;41275;51.912;4.388;2022-09-03T02:39:27;3.10;;;1.40;;
21546;SDS011;41275;51.912;4.388;2022-09-03T02:45:31;4.57;;;1.63;;
21546;SDS011;41275;51.912;4.388;2022-09-03T02:50:40;4.15;;;1.60;;
21546;SDS011;41275;51.912;4.388;2022-09-03T02:56:02;6.50;;;1.50;;
21546;SDS011;41275;51.912;4.388;2022-09-03T03:01:23;2.67;;;1.30;;
21546;SDS011;41275;51.912;4.388;2022-09-03T03:06:44;5.78;;;1.60;;
21546;SDS011;41275;51.912;4.388;2022-09-03T03:12:06;5.28;;;1.58;;
21546;SDS011;41275;51.912;4.388;2022-09-03T03:17:27;3.90;;;1.55;;
21546;SDS011;41275;51.912;4.388;2022-09-03T03:22:49;2.90;;;1.30;;
21546;SDS011;41275;51.912;4.388;2022-09-03T03:28:10;2.97;;;1.40;;
21546;SDS011;41275;51.912;4.388;2022-09-03T03:33:33;4.60;;;1.60;;
21546;SDS011;41275;51.912;4.388;2022-09-03T03:38:56;3.40;;;1.53;;
21546;SDS011;41275;51.912;4.388;2022-09-03T03:44:18;3.72;;;1.88;;
21546;SDS011;41275;51.912;4.388;2022-09-03T03:49:40;4.45;;;1.80;;
21546;SDS011;41275;51.912;4.388;2022-09-03T03:55:01;5.50;;;2.23;;
21546;SDS011;41275;51.912;4.388;2022-09-03T04:00:22;8.48;;;2.00;;
21546;SDS011;41275;51.912;4.388;2022-09-03T04:05:53;4.80;;;1.90;;
21546;SDS011;41275;51.912;4.388;2022-09-03T04:11:17;3.97;;;1.80;;
21546;SDS011;41275;51.912;4.388;2022-09-03T04:16:39;3.55;;;1.80;;
21546;SDS011;41275;51.912;4.388;2022-09-03T04:22:00;3.83;;;1.90;;
21546;SDS011;41275;51.912;4.388;2022-09-03T04:27:22;3.75;;;1.90;;
21546;SDS011;41275;51.912;4.388;2022-09-03T04:32:44;4.13;;;1.97;;
21546;SDS011;41275;51.912;4.388;2022-09-03T04:38:14;4.72;;;2.10;;
21546;SDS011;41275;51.912;4.388;2022-09-03T04:43:37;4.72;;;2.10;;
21546;SDS011;41275;51.912;4.388;2022-09-03T04:48:58;4.03;;;1.80;;
21546;SDS011;41275;51.912;4.388;2022-09-03T04:54:19;5.85;;;1.67;;
21546;SDS011;41275;51.912;4.388;2022-09-03T04:59:40;3.47;;;1.90;;
21546;SDS011;41275;51.912;4.388;2022-09-03T05:05:02;3.77;;;1.83;;
21546;SDS011;41275;51.912;4.388;2022-09-03T05:10:24;7.80;;;1.77;;
21546;SDS011;41275;51.912;4.388;2022-09-03T05:15:45;5.72;;;1.85;;
21546;SDS011;41275;51.912;4.388;2022-09-03T05:21:07;7.22;;;1.80;;
21546;SDS011;41275;51.912;4.388;2022-09-03T05:26:31;5.03;;;1.93;;
21546;SDS011;41275;51.912;4.388;2022-09-03T05:31:56;5.60;;;2.08;;
21546;SDS011;41275;51.912;4.388;2022-09-03T05:37:18;4.32;;;1.98;;
21546;SDS011;41275;51.912;4.388;2022-09-03T05:42:39;5.37;;;2.27;;
21546;SDS011;41275;51.912;4.388;2022-09-03T05:48:00;6.03;;;2.28;;
21546;SDS011;41275;51.912;4.388;2022-09-03T05:53:22;6.05;;;2.10;;
21546;SDS011;41275;51.912;4.388;2022-09-03T05:58:50;2.80;;;1.50;;
21546;SDS011;41275;51.912;4.388;2022-09-03T06:04:14;5.78;;;1.90;;
21546;SDS011;41275;51.912;4.388;2022-09-03T06:09:36;4.68;;;1.70;;
21546;SDS011;41275;51.912;4.388;2022-09-03T06:14:57;4.07;;;1.83;;
21546;SDS011;41275;51.912;4.388;2022-09-03T06:20:19;3.88;;;1.50;;
21546;SDS011;41275;51.912;4.388;2022-09-03T06:25:40;3.25;;;1.50;;
21546;SDS011;41275;51.912;4.388;2022-09-03T06:31:02;3.80;;;1.30;;
21546;SDS011;41275;51.912;4.388;2022-09-03T06:36:24;5.10;;;1.50;;
21546;SDS011;41275;51.912;4.388;2022-09-03T06:41:46;3.90;;;1.80;;
21546;SDS011;41275;51.912;4.388;2022-09-03T06:47:11;3.90;;;1.70;;
21546;SDS011;41275;51.912;4.388;2022-09-03T06:52:32;3.65;;;1.75;;
21546;SDS011;41275;51.912;4.388;2022-09-03T06:57:54;3.05;;;1.50;;
21546;SDS011;41275;51.912;4.388;2022-09-03T07:03:16;4.63;;;1.70;;
21546;SDS011;41275;51.912;4.388;2022-09-03T07:08:38;3.43;;;1.60;;
21546;SDS011;41275;51.912;4.388;2022-09-03T07:14:02;5.07;;;1.67;;
21546;SDS011;41275;51.912;4.388;2022-09-03T07:19:24;4.25;;;1.55;;
21546;SDS011;41275;51.912;4.388;2022-09-03T07:24:46;3.30;;;1.50;;
21546;SDS011;41275;51.912;4.388;2022-09-03T07:30:07;6.07;;;1.77;;
21546;SDS011;41275;51.912;4.388;2022-09-03T07:35:30;2.70;;;1.52;;
21546;SDS011;41275;51.912;4.388;2022-09-03T07:40:56;5.78;;;1.67;;
21546;SDS011;41275;51.912;4.388;2022-09-03T07:46:22;3.70;;;1.75;;
21546;SDS011;41275;51.912;4.388;2022-09-03T07:51:49;6.72;;;1.83;;
21546;SDS011;41275;51.912;4.388;2022-09-03T07:57:13;4.55;;;1.80;;
21546;SDS011;41275;51.912;4.388;2022-09-03T08:02:35;4.45;;;1.60;;
21546;SDS011;41275;51.912;4.388;2022-09-03T08:07:58;4.07;;;1.70;;
21546;SDS011;41275;51.912;4.388;2022-09-03T08:13:20;5.13;;;1.67;;
21546;SDS011;41275;51.912;4.388;2022-09-03T08:18:41;4.93;;;1.70;;
21546;SDS011;41275;51.912;4.388;2022-09-03T08:24:03;6.40;;;1.63;;
21546;SDS011;41275;51.912;4.388;2022-09-03T08:29:24;4.72;;;1.30;;
21546;SDS011;41275;51.912;4.388;2022-09-03T08:34:45;3.43;;;1.70;;
21546;SDS011;41275;51.912;4.388;2022-09-03T08:40:07;3.30;;;1.60;;
21546;SDS011;41275;51.912;4.388;2022-09-03T08:45:29;4.10;;;1.58;;
21546;SDS011;41275;51.912;4.388;2022-09-03T08:50:53;3.43;;;1.40;;
21546;SDS011;41275;51.912;4.388;2022-09-03T08:56:20;3.63;;;1.83;;
21546;SDS011;41275;51.912;4.388;2022-09-03T09:01:50;3.27;;;1.80;;
21546;SDS011;41275;51.912;4.388;2022-09-03T09:13:12;4.63;;;1.65;;
21546;SDS011;41275;51.912;4.388;2022-09-03T09:24:24;3.65;;;1.30;;
21546;SDS011;41275;51.912;4.388;2022-09-03T09:29:47;4.20;;;1.33;;
21546;SDS011;41275;51.912;4.388;2022-09-03T09:35:10;3.28;;;1.42;;
21546;SDS011;41275;51.912;4.388;2022-09-03T09:45:55;4.50;;;1.50;;
21546;SDS011;41275;51.912;4.388;2022-09-03T09:51:31;4.75;;;1.88;;
21546;SDS011;41275;51.912;4.388;2022-09-03T09:56:59;4.68;;;1.70;;
21546;SDS011;41275;51.912;4.388;2022-09-03T10:02:24;3.63;;;1.70;;
21546;SDS011;41275;51.912;4.388;2022-09-03T10:13:41;5.13;;;1.63;;
21546;SDS011;41275;51.912;4.388;2022-09-03T10:19:08;5.40;;;1.63;;
21546;SDS011;41275;51.912;4.388;2022-09-03T10:30:21;4.67;;;1.80;;
21546;SDS011;41275;51.912;4.388;2022-09-03T10:35:43;5.82;;;1.85;;
21546;SDS011;41275;51.912;4.388;2022-09-03T10:41:18;2.80;;;1.70;;
21546;SDS011;41275;51.912;4.388;2022-09-03T10:47:14;3.08;;;1.70;;
21546;SDS011;41275;51.912;4.388;2022-09-03T10:52:55;3.58;;;1.38;;
21546;SDS011;41275;51.912;4.388;2022-09-03T11:04:31;3.13;;;1.50;;
21546;SDS011;41275;51.912;4.388;2022-09-03T11:10:20;3.57;;;1.57;;
21546;SDS011;41275;51.912;4.388;2022-09-03T11:21:17;2.47;;;1.17;;
21546;SDS011;41275;51.912;4.388;2022-09-03T11:26:46;2.20;;;1.10;;
21546;SDS011;41275;51.912;4.388;2022-09-03T11:32:25;2.90;;;1.50;;
21546;SDS011;41275;51.912;4.388;2022-09-03T11:38:04;2.72;;;1.40;;
21546;SDS011;41275;51.912;4.388;2022-09-03T11:43:43;3.20;;;1.30;;
21546;SDS011;41275;51.912;4.388;2022-09-03T11:49:11;2.30;;;1.30;;
21546;SDS011;41275;51.912;4.388;2022-09-03T11:54:45;6.20;;;2.92;;
21546;SDS011;41275;51.912;4.388;2022-09-03T12:00:10;3.80;;;1.17;;
21546;SDS011;41275;51.912;4.388;2022-09-03T12:05:47;4.13;;;1.30;;
21546;SDS011;41275;51.912;4.388;2022-09-03T12:17:33;4.85;;;1.20;;
21546;SDS011;41275;51.912;4.388;2022-09-03T12:23:33;3.08;;;1.40;;
21546;SDS011;41275;51.912;4.388;2022-09-03T12:29:01;3.63;;;1.27;;
21546;SDS011;41275;51.912;4.388;2022-09-03T12:34:25;3.73;;;1.40;;
21546;SDS011;41275;51.912;4.388;2022-09-03T12:39:51;4.53;;;1.10;;
21546;SDS011;41275;51.912;4.388;2022-09-03T12:45:20;4.63;;;1.40;;
21546;SDS011;41275;51.912;4.388;2022-09-03T12:50:44;5.10;;;1.37;;
21546;SDS011;41275;51.912;4.388;2022-09-03T12:56:07;4.33;;;1.50;;
21546;SDS011;41275;51.912;4.388;2022-09-03T13:01:33;5.10;;;1.50;;
21546;SDS011;41275;51.912;4.388;2022-09-03T13:12:28;3.10;;;1.52;;
21546;SDS011;41275;51.912;4.388;2022-09-03T13:34:57;3.30;;;1.23;;
21546;SDS011;41275;51.912;4.388;2022-09-03T13:46:25;3.40;;;1.17;;
21546;SDS011;41275;51.912;4.388;2022-09-03T13:52:17;4.07;;;1.33;;
21546;SDS011;41275;51.912;4.388;2022-09-03T13:58:03;3.03;;;1.33;;
21546;SDS011;41275;51.912;4.388;2022-09-03T14:03:32;3.70;;;1.03;;
21546;SDS011;41275;51.912;4.388;2022-09-03T14:09:03;3.90;;;1.23;;
21546;SDS011;41275;51.912;4.388;2022-09-03T14:25:59;3.65;;;1.08;;
21546;SDS011;41275;51.912;4.388;2022-09-03T14:43:36;3.80;;;1.15;;
21546;SDS011;41275;51.912;4.388;2022-09-03T15:00:34;3.30;;;1.33;;
21546;SDS011;41275;51.912;4.388;2022-09-03T15:11:51;3.67;;;1.60;;
21546;SDS011;41275;51.912;4.388;2022-09-03T15:56:26;8.70;;;1.95;;
21546;SDS011;41275;51.912;4.388;2022-09-03T16:01:56;3.25;;;1.10;;
21546;SDS011;41275;51.912;4.388;2022-09-03T16:13:06;2.20;;;1.50;;
21546;SDS011;41275;51.912;4.388;2022-09-03T16:24:14;4.57;;;1.38;;
21546;SDS011;41275;51.912;4.388;2022-09-03T16:29:40;4.65;;;2.00;;
21546;SDS011;41275;51.912;4.388;2022-09-03T16:40:52;3.72;;;1.50;;
21546;SDS011;41275;51.912;4.388;2022-09-03T16:51:53;2.13;;;1.27;;
21546;SDS011;41275;51.912;4.388;2022-09-03T16:57:33;4.00;;;1.55;;
21546;SDS011;41275;51.912;4.388;2022-09-03T17:09:14;4.03;;;1.50;;
21546;SDS011;41275;51.912;4.388;2022-09-03T17:15:01;5.90;;;1.60;;
21546;SDS011;41275;51.912;4.388;2022-09-03T17:21:03;3.80;;;1.48;;
21546;SDS011;41275;51.912;4.388;2022-09-03T17:38:12;3.22;;;1.40;;
21546;SDS011;41275;51.912;4.388;2022-09-03T17:43:54;2.63;;;1.37;;
21546;SDS011;41275;51.912;4.388;2022-09-03T17:49:31;3.65;;;1.20;;
21546;SDS011;41275;51.912;4.388;2022-09-03T17:55:10;3.08;;;1.25;;
21546;SDS011;41275;51.912;4.388;2022-09-03T18:00:37;2.85;;;1.50;;
21546;SDS011;41275;51.912;4.388;2022-09-03T18:06:07;3.88;;;1.45;;
21546;SDS011;41275;51.912;4.388;2022-09-03T18:11:40;2.27;;;1.30;;
21546;SDS011;41275;51.912;4.388;2022-09-03T18:17:42;2.22;;;1.20;;
21546;SDS011;41275;51.912;4.388;2022-09-03T18:23:01;3.53;;;1.63;;
21546;SDS011;41275;51.912;4.388;2022-09-03T18:28:53;3.90;;;1.40;;
21546;SDS011;41275;51.912;4.388;2022-09-03T18:34:39;3.53;;;1.55;;
21546;SDS011;41275;51.912;4.388;2022-09-03T18:40:27;6.47;;;1.63;;
21546;SDS011;41275;51.912;4.388;2022-09-03T18:46:18;3.75;;;1.70;;
21546;SDS011;41275;51.912;4.388;2022-09-03T18:58:22;8.83;;;2.10;;
21546;SDS011;41275;51.912;4.388;2022-09-03T19:10:50;4.25;;;1.70;;
21546;SDS011;41275;51.912;4.388;2022-09-03T19:16:52;5.93;;;1.55;;
21546;SDS011;41275;51.912;4.388;2022-09-03T19:22:35;4.97;;;1.98;;
21546;SDS011;41275;51.912;4.388;2022-09-03T19:34:07;4.28;;;1.90;;
21546;SDS011;41275;51.912;4.388;2022-09-03T19:40:10;4.97;;;1.92;;
21546;SDS011;41275;51.912;4.388;2022-09-03T19:57:58;3.27;;;1.60;;
21546;SDS011;41275;51.912;4.388;2022-09-03T20:03:42;3.80;;;1.60;;
21546;SDS011;41275;51.912;4.388;2022-09-03T20:09:23;4.00;;;2.00;;
21546;SDS011;41275;51.912;4.388;2022-09-03T20:15:07;5.35;;;2.30;;
21546;SDS011;41275;51.912;4.388;2022-09-03T20:25:54;15.35;;;2.60;;
21546;SDS011;41275;51.912;4.388;2022-09-03T20:31:27;4.88;;;2.38;;
21546;SDS011;41275;51.912;4.388;2022-09-03T20:49:11;9.38;;;2.00;;
21546;SDS011;41275;51.912;4.388;2022-09-03T20:55:22;4.63;;;1.80;;
21546;SDS011;41275;51.912;4.388;2022-09-03T21:00:47;4.03;;;1.80;;
21546;SDS011;41275;51.912;4.388;2022-09-03T21:06:32;5.82;;;2.70;;
21546;SDS011;41275;51.912;4.388;2022-09-03T21:24:05;3.72;;;2.10;;
21546;SDS011;41275;51.912;4.388;2022-09-03T21:29:43;4.28;;;2.50;;
21546;SDS011;41275;51.912;4.388;2022-09-03T21:35:20;4.80;;;2.67;;
21546;SDS011;41275;51.912;4.388;2022-09-03T21:52:14;6.05;;;3.20;;
21546;SDS011;41275;51.912;4.388;2022-09-03T22:03:22;8.25;;;3.97;;
21546;SDS011;41275;51.912;4.388;2022-09-03T22:08:46;6.23;;;3.80;;
21546;SDS011;41275;51.912;4.388;2022-09-03T22:14:22;7.70;;;4.10;;
21546;SDS011;41275;51.912;4.388;2022-09-03T22:19:47;9.48;;;4.25;;
21546;SDS011;41275;51.912;4.388;2022-09-03T22:25:16;8.25;;;4.30;;
21546;SDS011;41275;51.912;4.388;2022-09-03T22:30:49;7.17;;;4.27;;
21546;SDS011;41275;51.912;4.388;2022-09-03T22:53:09;10.00;;;5.37;;
21546;SDS011;41275;51.912;4.388;2022-09-03T23:04:37;19.35;;;7.13;;
21546;SDS011;41275;51.912;4.388;2022-09-03T23:10:12;8.38;;;5.50;;
21546;SDS011;41275;51.912;4.388;2022-09-03T23:15:37;7.07;;;4.57;;
21546;SDS011;41275;51.912;4.388;2022-09-03T23:21:03;7.57;;;4.83;;
21546;SDS011;41275;51.912;4.388;2022-09-03T23:31:56;8.13;;;4.32;;
21546;SDS011;41275;51.912;4.388;2022-09-03T23:37:22;6.90;;;4.47;;
21546;SDS011;41275;51.912;4.388;2022-09-03T23:43:02;6.93;;;4.33;;
